createdAt,value
2019-01-24T01:51:38.005Z,21.8
2019-01-24T02:01:37.212Z,21.7
2019-01-24T02:11:36.423Z,21.8
2019-01-24T02:21:35.629Z,21.7
2019-01-24T02:31:34.838Z,21.7
2019-01-24T02:41:34.044Z,21.7
2019-01-24T02:51:33.250Z,21.7
2019-01-24T03:01:32.457Z,21.7
2019-01-24T03:11:31.665Z,21.7
2019-01-24T03:21:30.872Z,21.6
2019-01-24T03:31:30.081Z,21.6
2019-01-24T03:41:29.288Z,21.6
2019-01-24T03:51:28.494Z,21.6
2019-01-24T04:01:27.701Z,21.7
2019-01-24T04:11:26.907Z,21.8
2019-01-24T04:21:26.114Z,21.8
2019-01-24T04:31:25.323Z,21.9
2019-01-24T04:41:24.537Z,21.9
2019-01-24T04:51:23.747Z,21.9
2019-01-24T05:01:22.959Z,21.9
2019-01-24T05:11:22.169Z,21.9
2019-01-24T05:21:21.382Z,21.9
2019-01-24T05:31:20.597Z,22
2019-01-24T05:41:19.810Z,22.2
2019-01-24T05:51:19.023Z,22.2
2019-01-24T06:01:18.235Z,22
2019-01-24T06:11:17.447Z,22
2019-01-24T06:21:16.658Z,21.9
2019-01-24T06:31:15.866Z,21.8
2019-01-24T06:41:15.079Z,21.8
2019-01-24T06:51:14.283Z,21.7
2019-01-24T07:01:13.493Z,21.7
2019-01-24T07:11:12.698Z,21.6
2019-01-24T07:21:11.906Z,21.8
2019-01-24T07:31:11.112Z,22
2019-01-24T07:41:10.322Z,21.9
2019-01-24T07:51:09.527Z,22.1
2019-01-24T08:01:08.734Z,21.9
2019-01-24T08:11:07.940Z,21.9
2019-01-24T08:21:07.147Z,22
2019-01-24T08:31:06.353Z,22.1
2019-01-24T08:41:05.560Z,22.1
2019-01-24T08:51:04.767Z,21.9
2019-01-24T09:01:03.975Z,21.9
2019-01-24T09:11:03.177Z,21.9
2019-01-24T09:21:02.435Z,21.9
2019-01-24T09:31:01.591Z,21.9
2019-01-24T09:41:00.798Z,21.9
2019-01-24T09:51:00.006Z,21.9
2019-01-24T10:00:59.209Z,21.9
2019-01-24T10:10:58.418Z,21.9
2019-01-24T10:20:57.624Z,21.9
2019-01-24T10:30:56.827Z,21.9
2019-01-24T10:40:56.037Z,21.9
2019-01-24T10:50:55.238Z,21.9
2019-01-24T11:00:54.444Z,21.9
2019-01-24T11:10:53.658Z,21.9
2019-01-24T11:20:52.856Z,21.9
2019-01-24T11:30:52.061Z,21.9
2019-01-24T11:40:51.267Z,21.9
2019-01-24T11:50:51.175Z,21.9
2019-01-24T12:00:49.679Z,22
2019-01-24T12:10:48.885Z,21.9
2019-01-24T12:20:48.089Z,22
2019-01-24T12:30:47.294Z,22
2019-01-24T12:40:46.500Z,22
2019-01-24T12:50:45.706Z,22.1
2019-01-24T13:00:44.912Z,22
2019-01-24T13:10:44.115Z,22
2019-01-24T13:20:43.322Z,22
2019-01-24T13:30:42.532Z,22.1
2019-01-24T13:40:41.737Z,22.1
2019-01-24T13:50:40.946Z,22.1
2019-01-24T14:00:40.156Z,22.1
2019-01-24T14:10:39.369Z,22.1
2019-01-24T14:20:38.575Z,22
2019-01-24T14:30:37.886Z,22
2019-01-24T14:40:36.993Z,22
2019-01-24T14:50:36.203Z,21.9
2019-01-24T15:00:35.410Z,21.9
2019-01-24T15:10:34.624Z,22
2019-01-24T15:20:33.835Z,22
2019-01-24T15:30:33.041Z,22
2019-01-24T15:40:32.250Z,21.9
2019-01-24T15:50:31.460Z,21.9
2019-01-24T16:00:30.668Z,21.9
2019-01-24T16:10:29.877Z,21.9
2019-01-24T16:20:29.088Z,21.9
2019-01-24T16:30:28.296Z,21.9
2019-01-24T16:40:27.515Z,22.1
2019-01-24T16:50:26.720Z,22.1
2019-01-24T17:00:25.961Z,22.1
2019-01-24T17:10:25.143Z,22
2019-01-24T17:20:24.354Z,22.2
2019-01-24T17:30:23.572Z,22.1
2019-01-24T17:40:22.785Z,22.2
2019-01-24T17:50:21.990Z,22.3
2019-01-24T18:00:21.229Z,22.1
2019-01-24T18:10:20.427Z,22.3
2019-01-24T18:20:19.634Z,22.2
2019-01-24T18:30:18.877Z,22.1
2019-01-24T18:40:18.093Z,22.1
2019-01-24T19:00:16.505Z,22.1
2019-01-24T19:10:15.721Z,22
2019-01-24T19:20:14.908Z,22
2019-01-24T19:30:14.138Z,22.1
2019-01-24T19:40:13.328Z,22.1
2019-01-24T19:50:12.539Z,22.2
2019-01-24T20:00:11.754Z,22.1
2019-01-24T20:10:10.963Z,22.2
2019-01-24T20:30:09.416Z,22.2
2019-01-24T20:40:08.602Z,22.1
2019-01-24T20:50:07.814Z,22.1
2019-01-24T21:00:07.024Z,22
2019-01-24T21:10:06.236Z,22
2019-01-24T21:20:05.444Z,21.9
2019-01-24T21:30:04.654Z,21.9
2019-01-24T21:40:03.868Z,21.8
2019-01-24T21:50:03.078Z,21.8
2019-01-24T22:00:02.279Z,21.8
2019-01-24T22:10:01.490Z,21.8
2019-01-24T22:20:00.696Z,21.8
2019-01-24T22:29:59.913Z,21.7
2019-01-24T22:39:59.112Z,21.7
2019-01-24T22:49:58.320Z,21.7
2019-01-24T22:59:57.529Z,21.7
2019-01-24T23:09:56.736Z,21.6
2019-01-24T23:19:55.943Z,21.6
2019-01-24T23:29:55.152Z,21.6
2019-01-24T23:39:54.359Z,21.6
2019-01-24T23:49:53.566Z,21.6
2019-01-24T23:59:52.774Z,21.6
